Time;durP1;ratioP1;P1;durP2;ratioP2;P2;SDS_P1;SDS_P2;PMS_P1;PMS_P2;Temp;Humidity;BMP_temperature;BMP_pressure;BME280_temperature;BME280_humidity;BME280_pressure;Samples;Min_cycle;Max_cycle;Signal;HPM_P1;HPM_P2
2023/03/06 00:00:16;;;;;;;118.47;27.83;;;;;;;;;;5027873;28;20091;-60
2023/03/06 00:02:43;;;;;;;94.03;24.58;;;;;;;;;;5038832;28;20037;-58
2023/03/06 00:05:10;;;;;;;113.95;26.13;;;;;;;;;;5038059;28;20044;-54
2023/03/06 00:07:37;;;;;;;68.10;22.23;;;;;;;;;;5042194;28;20048;-55
2023/03/06 00:10:03;;;;;;;82.75;22.90;;;;;;;;;;5034932;28;20111;-54
2023/03/06 00:12:30;;;;;;;100.18;25.05;;;;;;;;;;5035540;28;20041;-55
2023/03/06 00:14:56;;;;;;;84.80;24.80;;;;;;;;;;5039541;28;20132;-60
2023/03/06 00:17:26;;;;;;;104.57;25.98;;;;;;;;;;5038286;28;20131;-58
2023/03/06 00:19:52;;;;;;;88.88;25.20;;;;;;;;;;5039477;28;20065;-59
2023/03/06 00:22:19;;;;;;;83.50;25.88;;;;;;;;;;5041548;28;20045;-55
2023/03/06 00:24:45;;;;;;;89.60;23.98;;;;;;;;;;5040458;28;20041;-56
2023/03/06 00:27:12;;;;;;;99.53;25.80;;;;;;;;;;5040129;28;20041;-58
2023/03/06 00:29:38;;;;;;;100.45;29.25;;;;;;;;;;5035915;28;20048;-57
2023/03/06 00:32:05;;;;;;;108.45;29.30;;;;;;;;;;5041803;28;20443;-61
2023/03/06 00:34:32;;;;;;;78.55;26.05;;;;;;;;;;5038657;28;20037;-60
2023/03/06 00:36:58;;;;;;;81.25;26.05;;;;;;;;;;5038452;28;20045;-54
2023/03/06 00:39:25;;;;;;;78.00;24.67;;;;;;;;;;5041466;28;20132;-54
2023/03/06 00:41:52;;;;;;;91.07;26.35;;;;;;;;;;5037683;28;20038;-55
2023/03/06 00:44:18;;;;;;;135.10;30.15;;;;;;;;;;5038002;28;20409;-56
2023/03/06 00:46:45;;;;;;;102.45;27.45;;;;;;;;;;5036662;28;20054;-56
2023/03/06 00:49:11;;;;;;;88.38;27.05;;;;;;;;;;5040424;28;20053;-59
2023/03/06 00:51:38;;;;;;;126.88;30.33;;;;;;;;;;5040445;28;20405;-60
2023/03/06 00:54:04;;;;;;;88.43;28.23;;;;;;;;;;5036218;28;20060;-57
2023/03/06 00:56:31;;;;;;;90.20;26.65;;;;;;;;;;5037911;28;20034;-56
2023/03/06 00:59:00;;;;;;;112.43;30.30;;;;;;;;;;5038951;28;20927;-54
2023/03/06 01:01:28;;;;;;;89.45;28.50;;;;;;;;;;5037768;28;20036;-56
2023/03/06 01:03:54;;;;;;;100.72;28.17;;;;;;;;;;5041357;28;20045;-57
2023/03/06 01:06:21;;;;;;;126.65;30.00;;;;;;;;;;5040074;28;20048;-60
2023/03/06 01:08:47;;;;;;;97.78;27.08;;;;;;;;;;5019877;28;20479;-60
2023/03/06 01:11:13;;;;;;;99.35;28.15;;;;;;;;;;5036524;28;20055;-55
2023/03/06 01:13:43;;;;;;;112.88;29.42;;;;;;;;;;5038529;28;20648;-54
2023/03/06 01:16:14;;;;;;;102.88;29.23;;;;;;;;;;5037306;28;20532;-54
2023/03/06 01:18:40;;;;;;;122.32;31.10;;;;;;;;;;5034652;28;20461;-57
2023/03/06 01:21:07;;;;;;;102.07;29.08;;;;;;;;;;5040384;28;20039;-59
2023/03/06 01:23:34;;;;;;;106.05;28.05;;;;;;;;;;5038286;28;20132;-57
2023/03/06 01:26:00;;;;;;;85.65;27.48;;;;;;;;;;5037302;28;20042;-56
2023/03/06 01:28:27;;;;;;;107.03;29.63;;;;;;;;;;5042625;28;20076;-59
2023/03/06 01:30:54;;;;;;;90.40;28.58;;;;;;;;;;5037144;28;20113;-59
2023/03/06 01:33:20;;;;;;;89.68;28.02;;;;;;;;;;5034386;28;20037;-55
2023/03/06 01:35:48;;;;;;;128.93;30.15;;;;;;;;;;5038314;28;20036;-54
2023/03/06 01:38:14;;;;;;;121.55;30.40;;;;;;;;;;5036583;28;20060;-54
2023/03/06 01:40:41;;;;;;;92.18;29.58;;;;;;;;;;5037658;28;20069;-57
2023/03/06 01:43:23;;;;;;;140.80;32.97;;;;;;;;;;5038470;28;20037;-55
2023/03/06 01:45:50;;;;;;;95.80;30.50;;;;;;;;;;5039670;28;20040;-59
2023/03/06 01:48:20;;;;;;;129.82;34.05;;;;;;;;;;5036961;28;20045;-59
2023/03/06 01:50:48;;;;;;;128.85;31.65;;;;;;;;;;5034461;28;20037;-53
2023/03/06 01:53:14;;;;;;;102.88;29.85;;;;;;;;;;5033490;28;20069;-55
2023/03/06 01:55:41;;;;;;;110.60;31.55;;;;;;;;;;5039998;28;20056;-55
2023/03/06 01:58:09;;;;;;;98.78;28.85;;;;;;;;;;5035962;28;20048;-58
2023/03/06 02:00:36;;;;;;;91.72;31.33;;;;;;;;;;5038737;28;20045;-55
2023/03/06 02:03:09;;;;;;;107.32;31.05;;;;;;;;;;5036676;28;20033;-53
2023/03/06 02:05:36;;;;;;;81.00;28.48;;;;;;;;;;5051974;28;20068;-54
2023/03/06 02:08:03;;;;;;;96.20;29.23;;;;;;;;;;5017403;28;20049;-56
2023/03/06 02:10:29;;;;;;;114.32;30.38;;;;;;;;;;5038072;28;20061;-58
2023/03/06 02:16:31;;;;;;;;;;;;;;;;;;4945498;23;20078;-58
2023/03/06 02:18:59;;;;;;;102.72;28.30;;;;;;;;;;4938134;28;19982;-59
2023/03/06 02:21:33;;;;;;;75.32;27.35;;;;;;;;;;4943053;28;20080;-58
2023/03/06 02:24:10;;;;;;;128.18;31.00;;;;;;;;;;4944456;28;20035;-58
2023/03/06 02:26:38;;;;;;;108.78;32.50;;;;;;;;;;4940229;28;20043;-60
2023/03/06 02:29:06;;;;;;;89.55;30.77;;;;;;;;;;4939382;28;20044;-58
2023/03/06 02:31:33;;;;;;;110.93;30.63;;;;;;;;;;4941918;28;20119;-60
2023/03/06 02:34:07;;;;;;;91.55;28.48;;;;;;;;;;4940484;28;20052;-60
2023/03/06 02:36:39;;;;;;;104.53;28.80;;;;;;;;;;4941725;28;20381;-60
2023/03/06 02:39:07;;;;;;;97.60;29.15;;;;;;;;;;4952087;28;20138;-60
2023/03/06 02:41:33;;;;;;;114.57;30.52;;;;;;;;;;4945293;28;20664;-60
2023/03/06 02:44:00;;;;;;;113.00;29.30;;;;;;;;;;4957161;28;20134;-55
2023/03/06 02:46:27;;;;;;;78.15;25.35;;;;;;;;;;4957144;28;20050;-54
2023/03/06 02:48:53;;;;;;;86.63;28.42;;;;;;;;;;4962548;28;20047;-58
2023/03/06 02:51:20;;;;;;;91.65;27.80;;;;;;;;;;4944563;28;20044;-58
2023/03/06 02:53:48;;;;;;;108.68;29.85;;;;;;;;;;4944553;28;20909;-59
2023/03/06 02:56:15;;;;;;;108.35;30.52;;;;;;;;;;4942619;28;20058;-59
2023/03/06 02:58:41;;;;;;;113.85;29.45;;;;;;;;;;4960604;28;20142;-56
2023/03/06 03:01:08;;;;;;;81.97;26.52;;;;;;;;;;4958297;28;20048;-56
2023/03/06 03:03:36;;;;;;;109.40;26.90;;;;;;;;;;4959941;28;20040;-53
2023/03/06 03:06:06;;;;;;;115.80;29.17;;;;;;;;;;4944071;28;20039;-59
2023/03/06 03:08:33;;;;;;;116.45;28.13;;;;;;;;;;4958562;28;20142;-59
2023/03/06 03:11:02;;;;;;;82.68;26.73;;;;;;;;;;4956157;28;20044;-60
2023/03/06 03:13:36;;;;;;;110.20;28.40;;;;;;;;;;4961567;28;20052;-58
2023/03/06 03:16:05;;;;;;;102.60;26.85;;;;;;;;;;4956952;28;20488;-55
2023/03/06 03:18:32;;;;;;;93.60;28.85;;;;;;;;;;4936803;28;20082;-56
2023/03/06 03:20:59;;;;;;;120.80;30.77;;;;;;;;;;4950195;28;20538;-55
2023/03/06 03:23:25;;;;;;;88.43;26.42;;;;;;;;;;4944659;28;20048;-58
2023/03/06 03:25:55;;;;;;;93.45;27.27;;;;;;;;;;4949078;28;20048;-55
2023/03/06 03:28:22;;;;;;;149.00;31.00;;;;;;;;;;4959467;28;20106;-53
2023/03/06 03:30:49;;;;;;;117.22;30.98;;;;;;;;;;4944477;28;20082;-53
2023/03/06 03:33:15;;;;;;;111.05;29.80;;;;;;;;;;4957657;28;20411;-52
2023/03/06 03:35:42;;;;;;;133.35;28.92;;;;;;;;;;4934990;28;21154;-48
2023/03/06 03:38:09;;;;;;;117.78;29.13;;;;;;;;;;4941747;28;20055;-51
2023/03/06 03:40:37;;;;;;;87.35;29.63;;;;;;;;;;4945299;28;20047;-51
2023/03/06 03:43:03;;;;;;;143.60;33.67;;;;;;;;;;4957522;28;20071;-50
2023/03/06 03:45:31;;;;;;;98.28;29.48;;;;;;;;;;4946874;28;20036;-50
2023/03/06 03:47:57;;;;;;;118.38;31.73;;;;;;;;;;4942796;28;20043;-50
2023/03/06 03:50:24;;;;;;;126.57;29.88;;;;;;;;;;4946988;28;20951;-53
2023/03/06 03:52:50;;;;;;;107.03;27.48;;;;;;;;;;4955705;28;20052;-49
2023/03/06 03:55:17;;;;;;;134.73;31.35;;;;;;;;;;4961683;28;20048;-50
2023/03/06 03:57:43;;;;;;;160.27;33.13;;;;;;;;;;4941446;28;20081;-50
2023/03/06 04:00:15;;;;;;;118.75;31.17;;;;;;;;;;4958006;28;20468;-51
2023/03/06 04:02:51;;;;;;;128.73;30.73;;;;;;;;;;4942548;28;20138;-53
2023/03/06 04:05:25;;;;;;;;;;;;;;;;;;4945305;28;20047;-53
2023/03/06 04:07:51;;;;;;;121.90;29.80;;;;;;;;;;4958366;28;19969;-51
2023/03/06 04:10:19;;;;;;;121.72;27.92;;;;;;;;;;4957757;28;20083;-49
2023/03/06 04:12:45;;;;;;;108.55;28.38;;;;;;;;;;4946108;28;20589;-49
2023/03/06 04:15:12;;;;;;;125.57;32.33;;;;;;;;;;4943783;28;20055;-51
2023/03/06 04:17:39;;;;;;;158.45;31.70;;;;;;;;;;4949844;28;20044;-48
2023/03/06 04:20:11;;;;;;;130.30;29.40;;;;;;;;;;4959074;28;20047;-49
2023/03/06 04:22:37;;;;;;;104.07;28.90;;;;;;;;;;4942996;28;20180;-52
2023/03/06 04:25:04;;;;;;;116.43;30.77;;;;;;;;;;4947499;28;20146;-51
2023/03/06 04:27:30;;;;;;;86.70;27.05;;;;;;;;;;4961461;28;20043;-51
2023/03/06 04:29:57;;;;;;;227.43;36.05;;;;;;;;;;4956791;28;20883;-57
2023/03/06 04:32:24;;;;;;;99.22;26.27;;;;;;;;;;4950220;28;20043;-56
2023/03/06 04:34:51;;;;;;;83.82;24.83;;;;;;;;;;4940156;29;20047;-59
2023/03/06 04:37:19;;;;;;;82.25;24.25;;;;;;;;;;4946830;28;20051;-58
2023/03/06 04:39:45;;;;;;;121.43;27.20;;;;;;;;;;4955967;28;20123;-58
2023/03/06 04:42:12;;;;;;;110.70;24.95;;;;;;;;;;4942927;28;20070;-56
2023/03/06 04:44:38;;;;;;;99.43;24.95;;;;;;;;;;4941936;28;20131;-58
2023/03/06 04:47:05;;;;;;;120.95;28.23;;;;;;;;;;4942736;29;20051;-56
2023/03/06 04:49:31;;;;;;;86.90;25.25;;;;;;;;;;4943236;28;20039;-58
2023/03/06 04:51:58;;;;;;;91.93;26.48;;;;;;;;;;4945885;28;20074;-58
2023/03/06 04:54:25;;;;;;;118.65;28.02;;;;;;;;;;4941617;28;20039;-58
2023/03/06 04:56:51;;;;;;;117.90;25.42;;;;;;;;;;4942970;28;20118;-55
2023/03/06 04:59:18;;;;;;;90.55;24.80;;;;;;;;;;4943757;28;20055;-59
2023/03/06 05:01:44;;;;;;;119.55;25.85;;;;;;;;;;4945109;28;20094;-57
2023/03/06 05:04:10;;;;;;;111.43;26.00;;;;;;;;;;4939058;28;20044;-56
2023/03/06 05:06:37;;;;;;;102.72;26.05;;;;;;;;;;4941968;28;20035;-55
2023/03/06 05:09:03;;;;;;;103.57;27.23;;;;;;;;;;4943518;28;20122;-59
2023/03/06 05:11:30;;;;;;;114.88;27.40;;;;;;;;;;4942596;28;20048;-59
2023/03/06 05:13:56;;;;;;;100.03;28.20;;;;;;;;;;4940195;28;20064;-54
2023/03/06 05:16:23;;;;;;;107.95;29.38;;;;;;;;;;4942382;28;20459;-57
2023/03/06 05:18:49;;;;;;;119.47;30.95;;;;;;;;;;4943964;28;20042;-58
2023/03/06 05:21:16;;;;;;;113.15;27.75;;;;;;;;;;4944088;28;20050;-58
2023/03/06 05:23:42;;;;;;;119.60;30.52;;;;;;;;;;4941095;28;20074;-60
2023/03/06 05:26:10;;;;;;;154.50;32.10;;;;;;;;;;4943666;29;20051;-54
2023/03/06 05:28:37;;;;;;;86.55;26.65;;;;;;;;;;4944930;28;20043;-54
2023/03/06 05:31:04;;;;;;;81.53;26.27;;;;;;;;;;4940934;28;20505;-55
2023/03/06 05:33:31;;;;;;;115.50;29.30;;;;;;;;;;4945688;28;20050;-56
2023/03/06 05:35:57;;;;;;;101.60;29.60;;;;;;;;;;4941040;28;20039;-55
2023/03/06 05:38:24;;;;;;;116.30;29.83;;;;;;;;;;4941489;28;20051;-58
2023/03/06 05:40:51;;;;;;;113.20;30.02;;;;;;;;;;4939812;29;20515;-59
2023/03/06 05:43:17;;;;;;;117.75;33.75;;;;;;;;;;4944944;28;20048;-58
2023/03/06 05:45:44;;;;;;;125.55;32.42;;;;;;;;;;4941796;28;20043;-62
2023/03/06 05:48:11;;;;;;;145.45;33.17;;;;;;;;;;4941161;28;20077;-62
2023/03/06 05:50:38;;;;;;;128.02;35.15;;;;;;;;;;4942081;28;20503;-61
2023/03/06 05:53:04;;;;;;;112.22;36.05;;;;;;;;;;4942426;28;20052;-62
2023/03/06 05:55:31;;;;;;;133.90;39.95;;;;;;;;;;4940863;28;20043;-61
2023/03/06 05:57:57;;;;;;;124.03;37.85;;;;;;;;;;4941897;28;20487;-62
2023/03/06 06:00:24;;;;;;;130.35;37.85;;;;;;;;;;4940844;28;20051;-62
2023/03/06 06:02:50;;;;;;;143.10;38.00;;;;;;;;;;4941676;28;20484;-62
2023/03/06 06:05:17;;;;;;;103.55;34.67;;;;;;;;;;4940549;29;20043;-61
2023/03/06 06:07:43;;;;;;;107.75;33.83;;;;;;;;;;4942507;28;20044;-61
2023/03/06 06:10:10;;;;;;;160.55;37.65;;;;;;;;;;4939165;28;20052;-63
2023/03/06 06:12:37;;;;;;;132.20;32.75;;;;;;;;;;4941125;28;20039;-62
2023/03/06 06:15:05;;;;;;;139.52;33.45;;;;;;;;;;4946324;28;20039;-62
2023/03/06 06:17:31;;;;;;;136.93;32.90;;;;;;;;;;4945543;28;20130;-61
2023/03/06 06:19:58;;;;;;;113.47;31.15;;;;;;;;;;4945503;29;20044;-62
2023/03/06 06:22:25;;;;;;;98.40;27.88;;;;;;;;;;4942518;28;20523;-62
2023/03/06 06:24:51;;;;;;;117.13;30.88;;;;;;;;;;4947089;28;20097;-61
2023/03/06 06:27:17;;;;;;;120.22;29.48;;;;;;;;;;4943997;28;20035;-60
2023/03/06 06:29:44;;;;;;;125.38;33.75;;;;;;;;;;4944823;28;20047;-62
2023/03/06 06:32:10;;;;;;;123.32;28.70;;;;;;;;;;4944080;28;20050;-62
2023/03/06 06:34:37;;;;;;;85.30;26.77;;;;;;;;;;4946121;28;20134;-62
2023/03/06 06:37:03;;;;;;;82.32;27.15;;;;;;;;;;4942649;28;20076;-62
2023/03/06 06:39:30;;;;;;;81.65;25.75;;;;;;;;;;4938417;28;20512;-62
2023/03/06 06:41:56;;;;;;;110.38;27.65;;;;;;;;;;4944474;28;20110;-62
2023/03/06 06:44:43;;;;;;;136.25;32.28;;;;;;;;;;4945343;28;20047;-62
2023/03/06 06:47:09;;;;;;;105.20;29.45;;;;;;;;;;4943852;29;20040;-62
2023/03/06 06:49:52;;;;;;;92.57;29.30;;;;;;;;;;4948397;29;20043;-62
2023/03/06 06:52:18;;;;;;;117.68;29.73;;;;;;;;;;4944151;28;20053;-62
2023/03/06 06:54:45;;;;;;;80.50;25.48;;;;;;;;;;4943565;28;20508;-60
2023/03/06 06:57:12;;;;;;;84.07;28.08;;;;;;;;;;4947072;28;20051;-62
2023/03/06 06:59:38;;;;;;;114.80;29.00;;;;;;;;;;4944450;28;20062;-62
2023/03/06 07:02:05;;;;;;;85.18;26.02;;;;;;;;;;4941869;28;20052;-62
2023/03/06 07:04:31;;;;;;;74.78;24.83;;;;;;;;;;4944612;28;20044;-62
2023/03/06 07:06:58;;;;;;;91.28;27.17;;;;;;;;;;4945335;28;20046;-62
2023/03/06 07:09:25;;;;;;;85.28;26.02;;;;;;;;;;4945167;28;20095;-62
2023/03/06 07:11:51;;;;;;;79.15;24.55;;;;;;;;;;4943739;28;20047;-62
2023/03/06 07:14:18;;;;;;;107.40;29.17;;;;;;;;;;4941459;29;20055;-61
2023/03/06 07:16:44;;;;;;;79.28;24.60;;;;;;;;;;4946104;28;20056;-62
2023/03/06 07:19:11;;;;;;;87.57;25.23;;;;;;;;;;4942916;28;20613;-60
2023/03/06 07:21:37;;;;;;;86.32;24.10;;;;;;;;;;4948080;28;20488;-62
2023/03/06 07:24:04;;;;;;;93.90;25.17;;;;;;;;;;4945977;28;20031;-60
2023/03/06 07:26:30;;;;;;;80.18;25.95;;;;;;;;;;4943172;28;20122;-62
2023/03/06 07:29:00;;;;;;;87.22;26.40;;;;;;;;;;4942286;29;20087;-61
2023/03/06 07:31:27;;;;;;;77.57;23.98;;;;;;;;;;4947394;28;20081;-59
2023/03/06 07:33:53;;;;;;;74.78;22.67;;;;;;;;;;4942592;28;20098;-59
2023/03/06 07:36:21;;;;;;;79.30;23.50;;;;;;;;;;4942999;28;20055;-59
2023/03/06 07:38:47;;;;;;;90.38;23.67;;;;;;;;;;4943717;28;20050;-59
2023/03/06 07:41:15;;;;;;;73.28;21.80;;;;;;;;;;4944454;29;20400;-59
2023/03/06 07:43:43;;;;;;;76.00;21.70;;;;;;;;;;4942775;28;20047;-59
2023/03/06 07:46:11;;;;;;;78.78;22.10;;;;;;;;;;4958533;28;20447;-59
2023/03/06 07:48:38;;;;;;;75.55;24.55;;;;;;;;;;4944055;28;20055;-57
2023/03/06 07:51:06;;;;;;;94.13;23.08;;;;;;;;;;4945669;28;20045;-57
2023/03/06 07:53:33;;;;;;;101.45;22.77;;;;;;;;;;4942830;28;20047;-59
2023/03/06 07:56:00;;;;;;;71.15;20.00;;;;;;;;;;4942650;29;20051;-59
2023/03/06 07:58:26;;;;;;;84.85;21.00;;;;;;;;;;4944470;28;20155;-59
2023/03/06 08:00:52;;;;;;;86.45;21.90;;;;;;;;;;4941054;28;20575;-58
2023/03/06 08:03:19;;;;;;;59.72;17.48;;;;;;;;;;4946336;28;20512;-60
2023/03/06 08:05:45;;;;;;;101.70;21.15;;;;;;;;;;4946461;28;20035;-59
2023/03/06 08:08:12;;;;;;;93.32;20.30;;;;;;;;;;4940810;28;20048;-59
2023/03/06 08:10:38;;;;;;;78.47;19.88;;;;;;;;;;4941150;28;20047;-57
2023/03/06 08:13:05;;;;;;;81.88;21.45;;;;;;;;;;4943861;28;20174;-57
2023/03/06 08:15:31;;;;;;;84.60;19.45;;;;;;;;;;4940656;28;20083;-59
2023/03/06 08:17:58;;;;;;;67.35;17.38;;;;;;;;;;4943347;28;20074;-58
2023/03/06 08:20:24;;;;;;;65.25;17.00;;;;;;;;;;4940921;28;20047;-58
2023/03/06 08:22:51;;;;;;;77.40;17.85;;;;;;;;;;4943030;28;20471;-59
2023/03/06 08:25:18;;;;;;;64.78;14.30;;;;;;;;;;4941937;28;20044;-60
2023/03/06 08:27:46;;;;;;;67.30;13.40;;;;;;;;;;4942648;28;20067;-57
2023/03/06 08:30:12;;;;;;;100.78;15.82;;;;;;;;;;4941096;28;20059;-58
2023/03/06 08:32:39;;;;;;;71.78;13.52;;;;;;;;;;4942096;28;20043;-59
2023/03/06 08:35:06;;;;;;;50.83;12.77;;;;;;;;;;4943086;28;20065;-58
2023/03/06 08:37:32;;;;;;;63.63;12.10;;;;;;;;;;4942653;28;20048;-61
2023/03/06 08:40:01;;;;;;;63.03;12.65;;;;;;;;;;4940753;28;20058;-60
2023/03/06 08:42:27;;;;;;;39.22;10.48;;;;;;;;;;4941586;28;20055;-58
2023/03/06 12:47:43;;;;;;;;;;;;;;;;;;4923933;29;20060;-60
2023/03/06 12:50:36;;;;;;;55.83;12.43;;;;;;;;;;4927910;28;19927;-62
2023/03/06 12:53:04;;;;;;;45.58;12.10;;;;;;;;;;4924431;29;20054;-63
2023/03/06 12:55:44;;;;;;;50.10;13.52;;;;;;;;;;4914785;29;20036;-62
2023/03/06 12:58:29;;;;;;;59.42;14.73;;;;;;;;;;4914020;29;20985;-62
2023/03/06 13:01:13;;;;;;;50.25;12.65;;;;;;;;;;4914414;29;20044;-62
2023/03/06 13:03:53;;;;;;;44.05;12.05;;;;;;;;;;4915318;29;20442;-62
2023/03/06 13:06:28;;;;;;;58.83;13.82;;;;;;;;;;4915371;29;20040;-62
2023/03/06 13:09:12;;;;;;;44.22;13.07;;;;;;;;;;4913006;29;20398;-62
2023/03/06 13:11:51;;;;;;;75.47;15.10;;;;;;;;;;4914382;29;20052;-62
2023/03/06 13:14:21;;;;;;;63.42;14.00;;;;;;;;;;4911435;29;20056;-62
2023/03/06 13:16:47;;;;;;;58.90;12.75;;;;;;;;;;4914794;29;20060;-62
2023/03/06 13:19:19;;;;;;;57.90;13.32;;;;;;;;;;4914971;29;20055;-62
2023/03/06 13:21:54;;;;;;;45.25;13.35;;;;;;;;;;4915659;29;20052;-62
2023/03/06 13:24:28;;;;;;;83.47;17.20;;;;;;;;;;4914496;29;20052;-62
2023/03/06 13:26:56;;;;;;;43.20;13.63;;;;;;;;;;4914998;29;20059;-62
2023/03/06 13:29:34;;;;;;;61.08;15.27;;;;;;;;;;4910735;29;20044;-62
2023/03/06 13:32:01;;;;;;;64.38;14.95;;;;;;;;;;4912344;29;20048;-62
2023/03/06 13:34:27;;;;;;;37.30;13.05;;;;;;;;;;4914726;29;20048;-62
2023/03/06 13:37:14;;;;;;;79.95;17.20;;;;;;;;;;4914948;29;20048;-62
2023/03/06 13:40:00;;;;;;;52.15;15.35;;;;;;;;;;4914849;29;20127;-62
2023/03/06 13:42:29;;;;;;;51.88;16.40;;;;;;;;;;4915288;29;20051;-61
2023/03/06 13:44:56;;;;;;;56.33;15.60;;;;;;;;;;4913895;29;20048;-62
2023/03/06 13:47:34;;;;;;;92.43;17.75;;;;;;;;;;4946419;29;20460;-62
2023/03/06 13:50:24;;;;;;;65.60;17.15;;;;;;;;;;4949271;28;20054;-51
2023/03/06 13:52:50;;;;;;;71.63;15.88;;;;;;;;;;4947330;29;20106;-56
2023/03/06 13:55:39;;;;;;;68.68;18.30;;;;;;;;;;4952290;28;20069;-52
2023/03/06 13:58:09;;;;;;;101.68;20.95;;;;;;;;;;4952030;29;20048;-53
2023/03/06 14:00:48;;;;;;;46.22;18.58;;;;;;;;;;4953047;29;20047;-54
2023/03/06 14:03:25;;;;;;;79.68;18.48;;;;;;;;;;4951594;29;20043;-52
2023/03/06 14:05:52;;;;;;;63.20;21.75;;;;;;;;;;4951117;28;20464;-54
2023/03/06 14:08:18;;;;;;;83.50;22.25;;;;;;;;;;4951510;28;20047;-52
2023/03/06 14:10:46;;;;;;;67.90;21.00;;;;;;;;;;4952396;28;20134;-50
2023/03/06 14:13:35;;;;;;;77.07;20.55;;;;;;;;;;4951927;28;20575;-51
2023/03/06 14:16:18;;;;;;;102.10;22.05;;;;;;;;;;4950462;29;20063;-52
2023/03/06 14:18:49;;;;;;;59.95;20.90;;;;;;;;;;4949108;29;20504;-52
2023/03/06 14:21:23;;;;;;;90.80;22.13;;;;;;;;;;4950031;29;20078;-55
2023/03/06 14:23:56;;;;;;;85.45;21.60;;;;;;;;;;4951071;28;20039;-56
2023/03/06 14:26:27;;;;;;;111.82;23.90;;;;;;;;;;4951482;28;20054;-52
2023/03/06 14:28:55;;;;;;;69.22;21.70;;;;;;;;;;4951418;28;20035;-50
2023/03/06 14:31:22;;;;;;;61.67;21.02;;;;;;;;;;4951015;29;20047;-50
2023/03/06 14:33:51;;;;;;;85.55;23.05;;;;;;;;;;4952703;28;20412;-50
2023/03/06 14:36:19;;;;;;;67.65;21.33;;;;;;;;;;4950817;29;20130;-51
2023/03/06 14:38:46;;;;;;;71.07;22.55;;;;;;;;;;4950921;28;20524;-52
2023/03/06 14:41:21;;;;;;;88.25;23.80;;;;;;;;;;4951241;28;20126;-53
2023/03/06 14:43:47;;;;;;;87.15;22.35;;;;;;;;;;4950656;28;20035;-52
2023/03/06 14:46:20;;;;;;;93.57;24.80;;;;;;;;;;4950088;28;20051;-54
2023/03/06 14:48:47;;;;;;;84.47;26.63;;;;;;;;;;4951861;28;20164;-53
2023/03/06 14:51:14;;;;;;;78.10;22.05;;;;;;;;;;4950653;29;20046;-53
2023/03/06 14:53:43;;;;;;;81.03;22.55;;;;;;;;;;4950163;28;20051;-50
2023/03/06 14:56:13;;;;;;;74.07;24.63;;;;;;;;;;4949386;29;20054;-52
2023/03/06 14:58:46;;;;;;;83.10;28.45;;;;;;;;;;4950826;28;20035;-53
2023/03/06 15:01:13;;;;;;;92.20;29.40;;;;;;;;;;4949395;29;20068;-51
2023/03/06 15:03:41;;;;;;;91.13;29.05;;;;;;;;;;4951704;28;20050;-54
2023/03/06 15:06:10;;;;;;;89.95;26.92;;;;;;;;;;4949946;28;20066;-52
2023/03/06 15:08:38;;;;;;;85.68;26.08;;;;;;;;;;4950645;28;20079;-50
2023/03/06 15:11:05;;;;;;;87.50;24.02;;;;;;;;;;4950598;28;20411;-52
2023/03/06 15:13:32;;;;;;;87.13;24.95;;;;;;;;;;4950230;28;20501;-53
2023/03/06 15:16:03;;;;;;;107.03;25.40;;;;;;;;;;4949560;28;20039;-54
2023/03/06 15:18:34;;;;;;;61.28;21.85;;;;;;;;;;4950601;29;20053;-51
2023/03/06 15:21:17;;;;;;;99.93;25.83;;;;;;;;;;4949545;28;20059;-53
2023/03/06 15:23:45;;;;;;;68.30;23.40;;;;;;;;;;4938121;29;20054;-52
2023/03/06 15:26:38;;;;;;;100.65;23.25;;;;;;;;;;4949961;28;20061;-50
2023/03/06 15:29:08;;;;;;;73.82;21.60;;;;;;;;;;4945670;29;20059;-54
2023/03/06 15:31:36;;;;;;;86.35;21.58;;;;;;;;;;4950125;28;20039;-52
2023/03/06 15:34:12;;;;;;;90.15;22.20;;;;;;;;;;4950638;28;20047;-51
2023/03/06 15:36:43;;;;;;;63.92;20.45;;;;;;;;;;4949521;29;20053;-52
2023/03/06 15:39:25;;;;;;;69.00;22.80;;;;;;;;;;4949975;28;20062;-54
2023/03/06 15:42:10;;;;;;;73.40;21.70;;;;;;;;;;4946997;29;20070;-51
2023/03/06 15:44:36;;;;;;;52.03;19.63;;;;;;;;;;4949779;28;20043;-54
2023/03/06 15:47:03;;;;;;;100.45;24.45;;;;;;;;;;4950004;28;20459;-54
2023/03/06 15:49:37;;;;;;;79.18;20.75;;;;;;;;;;4946527;29;20039;-56
2023/03/06 15:52:07;;;;;;;99.70;25.73;;;;;;;;;;4949911;28;20040;-51
2023/03/06 15:54:33;;;;;;;79.40;22.08;;;;;;;;;;4950517;28;20047;-51
2023/03/06 15:57:01;;;;;;;75.05;22.65;;;;;;;;;;4950095;29;20045;-53
2023/03/06 15:59:31;;;;;;;93.13;23.80;;;;;;;;;;4949260;28;20054;-53
2023/03/06 16:02:02;;;;;;;99.40;23.35;;;;;;;;;;4949824;28;20098;-55
2023/03/06 16:04:28;;;;;;;58.78;21.50;;;;;;;;;;4948788;29;20047;-54
2023/03/06 16:06:55;;;;;;;70.63;22.15;;;;;;;;;;4950907;28;20488;-53
2023/03/06 16:09:22;;;;;;;98.57;24.48;;;;;;;;;;4950005;29;20105;-51
2023/03/06 16:11:48;;;;;;;77.90;23.58;;;;;;;;;;4949820;28;20047;-54
2023/03/06 16:14:20;;;;;;;74.57;24.13;;;;;;;;;;4949725;28;20043;-52
2023/03/06 16:16:47;;;;;;;87.63;25.70;;;;;;;;;;4949583;28;20094;-53
2023/03/06 16:19:15;;;;;;;93.13;26.58;;;;;;;;;;4949515;28;20054;-53
2023/03/06 16:21:51;;;;;;;90.07;27.27;;;;;;;;;;4947831;28;20058;-61
2023/03/06 16:24:17;;;;;;;72.28;23.98;;;;;;;;;;4950520;28;20050;-61
2023/03/06 16:26:45;;;;;;;59.95;22.73;;;;;;;;;;4950614;28;20062;-63
2023/03/06 16:29:15;;;;;;;71.55;23.83;;;;;;;;;;4951831;28;20035;-63
2023/03/06 16:31:42;;;;;;;69.43;23.88;;;;;;;;;;4954149;28;20039;-64
2023/03/06 16:34:08;;;;;;;106.55;26.27;;;;;;;;;;4953706;28;20737;-61
2023/03/06 16:36:35;;;;;;;70.45;25.08;;;;;;;;;;4954695;28;20050;-63
2023/03/06 16:39:02;;;;;;;80.90;24.92;;;;;;;;;;4953598;28;20050;-63
2023/03/06 16:41:29;;;;;;;62.88;25.13;;;;;;;;;;4953680;29;20050;-63
2023/03/06 16:43:55;;;;;;;135.95;30.23;;;;;;;;;;4952878;28;20043;-63
2023/03/06 16:46:23;;;;;;;119.60;31.23;;;;;;;;;;4953432;28;20054;-60
2023/03/06 16:48:50;;;;;;;74.55;29.67;;;;;;;;;;4954509;28;20118;-59
2023/03/06 16:51:20;;;;;;;83.30;29.80;;;;;;;;;;4953166;28;20039;-61
2023/03/06 16:53:47;;;;;;;83.82;28.55;;;;;;;;;;4951970;28;20098;-58
2023/03/06 16:56:14;;;;;;;90.38;31.60;;;;;;;;;;4953272;28;20896;-62
2023/03/06 16:58:41;;;;;;;103.13;33.10;;;;;;;;;;4953535;28;20059;-59
2023/03/06 17:01:09;;;;;;;110.57;33.95;;;;;;;;;;4954120;28;20035;-57
2023/03/06 17:03:35;;;;;;;111.03;37.65;;;;;;;;;;4953696;28;20508;-59
2023/03/06 17:06:02;;;;;;;134.82;42.17;;;;;;;;;;4953182;28;20035;-59
2023/03/06 17:08:29;;;;;;;112.30;42.08;;;;;;;;;;4953162;28;20050;-59
2023/03/06 17:10:55;;;;;;;108.78;42.50;;;;;;;;;;4953444;28;20035;-58
2023/03/06 17:13:22;;;;;;;118.88;41.78;;;;;;;;;;4953302;28;20127;-60
2023/03/06 17:15:55;;;;;;;150.88;55.15;;;;;;;;;;4949221;28;20047;-60
2023/03/06 17:18:23;;;;;;;136.88;54.45;;;;;;;;;;4953407;29;20052;-60
2023/03/06 17:20:51;;;;;;;166.88;59.65;;;;;;;;;;4952813;28;20407;-60
2023/03/06 17:23:18;;;;;;;145.13;56.30;;;;;;;;;;4951449;28;20043;-57
2023/03/06 17:25:45;;;;;;;158.05;58.35;;;;;;;;;;4949248;29;20039;-55
2023/03/06 17:28:11;;;;;;;208.48;65.05;;;;;;;;;;4951196;29;20050;-54
2023/03/06 17:30:37;;;;;;;191.32;60.78;;;;;;;;;;4951117;29;20133;-55
2023/03/06 17:33:04;;;;;;;195.48;69.20;;;;;;;;;;4952138;28;20039;-53
2023/03/06 17:35:32;;;;;;;189.93;70.50;;;;;;;;;;4952323;29;20106;-55
2023/03/06 17:37:59;;;;;;;196.93;69.55;;;;;;;;;;4948735;29;20098;-55
2023/03/06 17:40:25;;;;;;;191.38;74.20;;;;;;;;;;4948895;28;20050;-52
2023/03/06 17:42:52;;;;;;;190.32;73.10;;;;;;;;;;4952930;28;20052;-55
2023/03/06 17:45:19;;;;;;;172.60;71.25;;;;;;;;;;4951714;28;20106;-53
2023/03/06 17:47:45;;;;;;;176.15;68.53;;;;;;;;;;4952111;28;20036;-50
2023/03/06 17:50:14;;;;;;;208.23;73.13;;;;;;;;;;4952128;28;20043;-49
2023/03/06 17:52:40;;;;;;;165.73;66.80;;;;;;;;;;4953611;28;20043;-49
2023/03/06 17:55:07;;;;;;;161.80;65.32;;;;;;;;;;4952404;28;20497;-49
2023/03/06 17:57:33;;;;;;;166.88;62.40;;;;;;;;;;4952887;28;20061;-51
2023/03/06 18:00:00;;;;;;;162.65;58.80;;;;;;;;;;4950366;28;20043;-51
2023/03/06 18:02:37;;;;;;;133.27;55.60;;;;;;;;;;4952262;28;20044;-52
2023/03/06 18:05:04;;;;;;;158.20;57.75;;;;;;;;;;4951629;28;20110;-56
2023/03/06 18:07:30;;;;;;;139.35;55.15;;;;;;;;;;4952322;28;20051;-55
2023/03/06 18:09:57;;;;;;;149.38;54.10;;;;;;;;;;4952726;28;20057;-53
2023/03/06 18:12:24;;;;;;;161.00;55.92;;;;;;;;;;4952368;29;20039;-53
2023/03/06 18:14:50;;;;;;;137.13;55.60;;;;;;;;;;4951132;28;20479;-52
2023/03/06 18:17:17;;;;;;;133.45;51.05;;;;;;;;;;4950612;29;20047;-51
2023/03/06 18:19:43;;;;;;;162.65;52.88;;;;;;;;;;4951377;28;20047;-53
2023/03/06 18:22:09;;;;;;;160.85;55.15;;;;;;;;;;4951581;28;20139;-54
2023/03/06 18:24:36;;;;;;;139.07;52.10;;;;;;;;;;4949337;28;20043;-62